createdAt,value
2024-03-22T00:05:12.234Z,83.83
2024-03-22T00:11:34.262Z,83.93
2024-03-22T00:17:54.254Z,84.72
2024-03-22T00:24:16.254Z,85.19
2024-03-22T00:30:36.878Z,85.06
2024-03-22T00:36:58.359Z,84.47
2024-03-22T00:43:18.233Z,84.72
2024-03-22T00:49:40.268Z,84.73
2024-03-22T00:56:00.255Z,84.66
2024-03-22T01:02:22.216Z,84.23
2024-03-22T01:08:42.219Z,84.47
2024-03-22T01:15:04.264Z,84.58
2024-03-22T01:21:24.233Z,84.62
2024-03-22T01:27:46.226Z,84.96
2024-03-22T01:34:06.235Z,84.95
2024-03-22T01:40:30.619Z,85.16
2024-03-22T01:46:48.244Z,85.55
2024-03-22T01:53:10.241Z,85.67
2024-03-22T01:59:30.233Z,85.71
2024-03-22T02:05:52.229Z,85.73
2024-03-22T02:12:12.271Z,85.39
2024-03-22T02:18:34.330Z,85.31
2024-03-22T02:24:54.271Z,85.6
2024-03-22T02:31:16.296Z,86.05
2024-03-22T02:37:36.238Z,86.83
2024-03-22T02:43:58.235Z,86.55
2024-03-22T02:50:18.234Z,86.04
2024-03-22T02:56:40.296Z,86.55
2024-03-22T03:03:00.233Z,86.8
2024-03-22T03:09:22.225Z,86.89
2024-03-22T03:15:42.283Z,86.66
2024-03-22T03:22:04.272Z,86.54
2024-03-22T03:28:24.410Z,85.99
2024-03-22T03:34:46.302Z,85.76
2024-03-22T03:41:06.218Z,85.25
2024-03-22T03:47:28.229Z,85.37
2024-03-22T03:53:48.222Z,84.96
2024-03-22T04:00:10.221Z,85.24
2024-03-22T04:06:30.300Z,85.56
2024-03-22T04:12:52.238Z,86.24
2024-03-22T04:36:13.750Z,87.45
2024-03-22T04:42:33.198Z,87.65
2024-03-22T04:48:55.238Z,87.83
2024-03-22T04:55:15.212Z,87.98
2024-03-22T05:01:37.248Z,88.09
2024-03-22T05:07:57.209Z,87.89
2024-03-22T05:14:19.241Z,87.99
2024-03-22T05:20:39.213Z,88.23
2024-03-22T05:27:01.198Z,89.12
2024-03-22T05:33:21.239Z,89.18
2024-03-22T05:39:43.237Z,89.43
2024-03-22T05:46:03.246Z,89.17
2024-03-22T05:52:25.231Z,89.08
2024-03-22T05:58:45.247Z,88.95
2024-03-22T06:05:07.229Z,86.95
2024-03-22T06:11:27.243Z,84.69
2024-03-22T06:17:49.286Z,82.84
2024-03-22T06:24:09.261Z,82.09
2024-03-22T06:30:31.247Z,81.27
2024-03-22T06:36:51.235Z,80.67
2024-03-22T06:43:13.206Z,81.15
2024-03-22T06:49:33.238Z,80.61
2024-03-22T06:55:57.403Z,80.99
2024-03-22T07:02:15.234Z,81.8
2024-03-22T07:08:37.249Z,81.53
2024-03-22T07:14:57.260Z,80.21
2024-03-22T07:21:19.264Z,79.26
2024-03-22T07:27:39.249Z,78.57
2024-03-22T07:34:01.244Z,77.78
2024-03-22T07:40:21.249Z,75.76
2024-03-22T07:46:43.218Z,73.85
2024-03-22T07:53:03.247Z,70.97
2024-03-22T07:59:25.202Z,70.66
2024-03-22T08:05:45.218Z,70.21
2024-03-22T08:12:07.243Z,69.46
2024-03-22T08:18:27.207Z,69.11
2024-03-22T08:24:49.296Z,67.75
2024-03-22T08:31:09.209Z,67.58
2024-03-22T08:37:31.241Z,66.7
2024-03-22T08:43:51.262Z,66.73
2024-03-22T08:50:13.269Z,66.43
2024-03-22T08:56:33.237Z,66.15
2024-03-22T09:02:55.479Z,64.62
2024-03-22T09:09:15.459Z,65.42
2024-03-22T09:15:37.256Z,66.07
2024-03-22T09:21:57.287Z,66.94
2024-03-22T09:28:19.456Z,66.9
2024-03-22T09:44:26.234Z,65.25
2024-03-22T09:50:46.229Z,64.89
2024-03-22T09:57:08.235Z,64.21
2024-03-22T10:03:28.234Z,63.3
2024-03-22T10:09:50.228Z,62.16
2024-03-22T10:16:10.198Z,61.98
2024-03-22T10:22:32.265Z,61.33
2024-03-22T10:28:52.230Z,60.28
2024-03-22T10:35:14.231Z,59.91
2024-03-22T10:41:34.246Z,59.66
2024-03-22T10:47:56.229Z,58.99
2024-03-22T10:54:16.517Z,59.05
2024-03-22T11:00:38.278Z,57.36
2024-03-22T11:06:58.233Z,57.58
2024-03-22T11:13:20.225Z,56.76
2024-03-22T11:19:40.235Z,57.49
2024-03-22T11:26:02.199Z,54.77
2024-03-22T11:32:22.204Z,55.63
2024-03-22T11:38:44.391Z,54.49
2024-03-22T11:45:04.213Z,54.5
2024-03-22T11:51:27.789Z,54.11
2024-03-22T11:57:46.388Z,53.42
2024-03-22T12:04:08.238Z,52.49
2024-03-22T12:10:28.224Z,53.67
2024-03-22T12:16:50.430Z,53.6
2024-03-22T12:23:10.246Z,53.36
2024-03-22T12:29:32.223Z,53
2024-03-22T12:35:52.236Z,53.13
2024-03-22T12:42:14.210Z,51.95
2024-03-22T12:48:34.229Z,52.66
2024-03-22T12:54:56.224Z,52.69
2024-03-22T13:01:16.226Z,53.03
2024-03-22T13:07:38.198Z,53.28
2024-03-22T13:13:58.279Z,53.08
2024-03-22T13:20:20.228Z,52.89
2024-03-22T13:26:40.275Z,52.92
2024-03-22T13:33:02.531Z,52.66
2024-03-22T13:39:22.440Z,51.35
2024-03-22T13:45:44.218Z,49.16
2024-03-22T13:52:04.214Z,48.54
2024-03-22T13:58:26.216Z,50.12
2024-03-22T14:04:46.219Z,47.84
2024-03-22T14:11:08.246Z,46.97
2024-03-22T14:17:27.362Z,45.8
2024-03-22T14:23:49.215Z,46.93
2024-03-22T14:30:09.229Z,47.52
2024-03-22T14:36:31.251Z,45.59
2024-03-22T14:42:51.212Z,45.48
2024-03-22T14:58:58.660Z,47.28
2024-03-22T15:05:18.202Z,45.26
2024-03-22T15:11:40.223Z,46.15
2024-03-22T15:18:00.238Z,46.51
2024-03-22T15:24:22.195Z,45.87
2024-03-22T15:30:42.286Z,46.4
2024-03-22T15:37:04.425Z,47.06
2024-03-22T15:43:25.391Z,46.11
2024-03-22T15:49:47.207Z,46.58
2024-03-22T15:56:07.253Z,45.72
2024-03-22T16:02:29.202Z,46.99
2024-03-22T16:08:49.213Z,47.85
2024-03-22T16:15:11.242Z,48.68
2024-03-22T16:21:31.201Z,50.03
2024-03-22T16:27:53.228Z,50.93
2024-03-22T16:34:13.220Z,52.68
2024-03-22T16:40:35.225Z,55.79
2024-03-22T16:46:55.195Z,57.15
2024-03-22T16:53:16.256Z,58.61
2024-03-22T16:59:36.226Z,60.56
2024-03-22T17:05:58.204Z,61.27
2024-03-22T17:12:19.867Z,63.12
2024-03-22T17:18:40.215Z,64.58
2024-03-22T17:25:00.198Z,65.68
2024-03-22T17:31:28.530Z,66.83
2024-03-22T17:37:42.195Z,69.66
2024-03-22T17:44:04.217Z,70.28
2024-03-22T17:50:24.227Z,71.32
2024-03-22T17:56:46.351Z,72.19
2024-03-22T18:03:06.269Z,72.8
2024-03-22T18:09:29.326Z,73.35
2024-03-22T18:15:48.545Z,74.38
2024-03-22T18:22:10.196Z,74.79
2024-03-22T18:28:30.254Z,75.38
2024-03-22T18:34:52.223Z,75.58
2024-03-22T18:41:12.226Z,76.25
2024-03-22T18:47:34.244Z,76.85
2024-03-22T18:53:54.217Z,77.72
2024-03-22T19:00:16.228Z,77.57
2024-03-22T19:06:36.281Z,77.42
2024-03-22T19:12:58.239Z,77.77
2024-03-22T19:19:18.216Z,77.08
2024-03-22T19:25:39.250Z,77.54
2024-03-22T19:31:59.230Z,77.53
2024-03-22T19:38:21.209Z,77.81
2024-03-22T19:44:41.255Z,77.4
2024-03-22T19:51:03.202Z,78.57
2024-03-22T20:06:33.182Z,79.56
2024-03-22T20:12:52.214Z,79.38
2024-03-22T20:19:14.271Z,79.05
2024-03-22T20:25:34.494Z,79.08
2024-03-22T20:31:56.213Z,79.71
2024-03-22T20:38:16.239Z,79.27
2024-03-22T20:44:38.219Z,78.76
2024-03-22T20:50:58.224Z,78.45
2024-03-22T20:57:20.203Z,78.65
2024-03-22T21:03:40.248Z,78.54
2024-03-22T21:10:02.235Z,78.52
2024-03-22T21:16:22.212Z,78.85
2024-03-22T21:22:44.375Z,79.51
2024-03-22T21:29:04.197Z,79.55
2024-03-22T21:35:26.226Z,78.63
2024-03-22T21:41:46.227Z,78.01
2024-03-22T21:48:08.222Z,77.93
2024-03-22T21:54:28.237Z,78.4
2024-03-22T22:00:50.567Z,78.64
2024-03-22T22:07:10.241Z,78.48
2024-03-22T22:13:32.218Z,79.01
2024-03-22T22:19:52.238Z,79.41
2024-03-22T22:26:14.212Z,80.31
2024-03-22T22:32:34.230Z,80.57
2024-03-22T22:38:56.248Z,85.63
2024-03-22T22:45:16.252Z,88.39
2024-03-22T22:51:38.218Z,89.77
2024-03-22T22:57:58.263Z,89.78
2024-03-22T23:20:56.276Z,91.1
2024-03-22T23:27:16.226Z,91.38
2024-03-22T23:33:38.249Z,91.29
2024-03-22T23:39:58.224Z,91.59
2024-03-22T23:46:20.277Z,91.24
2024-03-22T23:52:40.219Z,90.96
2024-03-22T23:59:02.247Z,89.97
